createdAt,value
2022-10-24T00:00:03.378Z,21.00
2022-10-24T00:03:07.516Z,17.90
2022-10-24T00:08:49.471Z,18.60
2022-10-24T00:11:28.479Z,17.70
2022-10-24T00:14:10.292Z,20.20
2022-10-24T00:16:50.195Z,19.60
2022-10-24T00:19:44.368Z,20.90
2022-10-24T00:22:29.060Z,18.60
2022-10-24T00:25:12.725Z,18.30
2022-10-24T00:27:55.272Z,18.70
2022-10-24T00:30:40.186Z,18.60
2022-10-24T00:33:20.849Z,15.30
2022-10-24T00:36:06.049Z,17.50
2022-10-24T00:38:50.039Z,15.80
2022-10-24T00:41:42.088Z,17.70
2022-10-24T00:44:49.632Z,16.70
2022-10-24T00:47:36.572Z,16.90
2022-10-24T00:51:02.874Z,16.20
2022-10-24T00:53:51.510Z,16.80
2022-10-24T00:56:51.321Z,19.50
2022-10-24T00:59:54.702Z,17.40
2022-10-24T01:02:30.692Z,31.30
2022-10-24T01:05:30.101Z,22.80
2022-10-24T01:12:51.852Z,17.40
2022-10-24T01:15:58.314Z,18.90
2022-10-24T01:19:15.662Z,18.30
2022-10-24T01:22:14.555Z,30.50
2022-10-24T01:25:38.576Z,20.00
2022-10-24T01:28:52.145Z,18.60
2022-10-24T01:32:23.815Z,17.40
2022-10-24T01:38:41.533Z,16.10
2022-10-24T01:41:43.315Z,16.90
2022-10-24T01:45:00.184Z,20.10
2022-10-24T01:47:58.298Z,18.80
2022-10-24T01:51:05.380Z,20.00
2022-10-24T01:56:57.068Z,21.20
2022-10-24T01:59:29.784Z,22.30
2022-10-24T02:02:59.588Z,19.80
2022-10-24T02:06:03.430Z,18.10
2022-10-24T02:09:12.881Z,18.10
2022-10-24T02:12:32.158Z,19.80
2022-10-24T02:15:36.221Z,20.70
2022-10-24T02:18:26.581Z,18.80
2022-10-24T02:21:47.258Z,17.90
2022-10-24T02:24:51.670Z,22.50
2022-10-24T02:28:04.062Z,21.00
2022-10-24T02:32:11.008Z,19.80
2022-10-24T02:34:20.206Z,22.80
2022-10-24T02:37:18.694Z,18.30
2022-10-24T02:41:24.447Z,18.80
2022-10-24T02:43:59.027Z,20.10
2022-10-24T02:46:44.544Z,18.90
2022-10-24T02:49:25.989Z,18.20
2022-10-24T02:52:26.682Z,20.10
2022-10-24T02:55:34.646Z,20.70
2022-10-24T02:58:37.838Z,20.60
2022-10-24T03:01:18.421Z,20.40
2022-10-24T03:04:06.898Z,20.00
2022-10-24T03:06:46.955Z,19.80
2022-10-24T03:09:42.547Z,18.40
2022-10-24T03:12:33.001Z,20.70
2022-10-24T03:15:13.978Z,22.00
2022-10-24T03:17:50.297Z,25.70
2022-10-24T03:20:29.321Z,25.80
2022-10-24T03:23:15.267Z,26.90
2022-10-24T03:26:09.546Z,26.00
2022-10-24T03:28:50.593Z,24.70
2022-10-24T03:31:32.326Z,24.50
2022-10-24T03:34:12.288Z,23.60
2022-10-24T03:37:07.590Z,22.40
2022-10-24T03:39:48.348Z,22.50
2022-10-24T03:42:22.086Z,19.70
2022-10-24T03:44:57.339Z,19.90
2022-10-24T03:47:45.651Z,20.30
2022-10-24T03:50:47.503Z,20.60
2022-10-24T03:53:36.105Z,18.20
2022-10-24T03:56:22.161Z,20.60
2022-10-24T03:58:56.480Z,20.40
2022-10-24T04:01:54.471Z,19.40
2022-10-24T04:08:08.204Z,18.70
2022-10-24T04:10:53.492Z,21.00
2022-10-24T04:13:45.283Z,18.40
2022-10-24T04:16:48.635Z,19.10
2022-10-24T04:19:37.270Z,19.20
2022-10-24T04:22:24.802Z,16.70
2022-10-24T04:25:11.160Z,17.80
2022-10-24T04:27:49.811Z,19.50
2022-10-24T04:30:21.680Z,19.20
2022-10-24T04:32:51.112Z,18.30
2022-10-24T04:35:37.079Z,20.40
2022-10-24T04:38:13.972Z,18.10
2022-10-24T04:41:13.925Z,16.70
2022-10-24T04:43:46.960Z,18.20
2022-10-24T04:46:31.436Z,17.60
2022-10-24T04:49:16.290Z,17.50
2022-10-24T04:52:03.504Z,17.10
2022-10-24T04:54:50.707Z,18.90
2022-10-24T04:57:49.806Z,19.70
2022-10-24T05:00:59.286Z,18.70
2022-10-24T05:03:40.951Z,17.50
2022-10-24T05:06:27.292Z,17.50
2022-10-24T05:09:46.069Z,17.10
2022-10-24T05:13:01.050Z,16.30
2022-10-24T05:16:08.485Z,16.20
2022-10-24T05:18:54.470Z,17.20
2022-10-24T05:24:22.143Z,21.50
2022-10-24T05:27:01.923Z,24.50
2022-10-24T05:30:23.033Z,39.30
2022-10-24T05:33:54.243Z,48.80
2022-10-24T05:36:42.217Z,64.60
2022-10-24T05:42:41.742Z,37.90
2022-10-24T05:45:27.006Z,32.20
2022-10-24T05:48:16.339Z,36.50
2022-10-24T05:50:58.004Z,42.80
2022-10-24T05:53:31.499Z,38.40
2022-10-24T05:56:14.365Z,47.00
2022-10-24T05:58:59.414Z,45.50
2022-10-24T06:01:40.438Z,44.50
2022-10-24T06:04:36.655Z,44.10
2022-10-24T06:07:13.635Z,46.20
2022-10-24T06:10:04.807Z,47.20
2022-10-24T06:12:48.624Z,41.90
2022-10-24T06:15:39.762Z,38.30
2022-10-24T06:18:36.011Z,38.70
2022-10-24T06:21:11.078Z,37.00
2022-10-24T06:23:53.976Z,42.20
2022-10-24T06:26:26.301Z,32.70
2022-10-24T06:29:02.409Z,31.40
2022-10-24T06:31:44.701Z,33.70
2022-10-24T06:34:28.365Z,38.80
2022-10-24T06:37:04.362Z,46.00
2022-10-24T06:40:02.789Z,35.70
2022-10-24T06:42:56.291Z,34.30
2022-10-24T06:45:31.437Z,35.60
2022-10-24T06:48:24.305Z,23.40
2022-10-24T06:51:20.607Z,24.50
2022-10-24T06:53:57.255Z,24.50
2022-10-24T06:56:46.901Z,27.30
2022-10-24T06:59:47.578Z,35.60
2022-10-24T07:02:26.315Z,30.00
2022-10-24T07:05:06.513Z,30.20
2022-10-24T07:07:45.068Z,30.60
2022-10-24T07:10:30.558Z,31.00
2022-10-24T07:14:03.448Z,34.30
2022-10-24T07:16:29.261Z,35.90
2022-10-24T07:19:11.920Z,29.70
2022-10-24T07:21:56.222Z,29.80
2022-10-24T07:24:29.691Z,27.30
2022-10-24T07:27:14.934Z,29.60
2022-10-24T07:29:53.685Z,24.90
2022-10-24T07:32:52.268Z,26.40
2022-10-24T07:35:45.453Z,23.50
2022-10-24T07:38:18.857Z,24.80
2022-10-24T07:41:05.070Z,24.10
2022-10-24T07:44:34.424Z,25.00
2022-10-24T07:47:26.253Z,30.30
2022-10-24T07:50:17.061Z,22.80
2022-10-24T07:53:20.060Z,21.80
2022-10-24T07:56:27.747Z,20.40
2022-10-24T07:59:40.866Z,20.30
2022-10-24T08:02:33.111Z,19.40
2022-10-24T08:05:22.168Z,18.90
2022-10-24T08:08:24.681Z,17.60
2022-10-24T08:11:08.600Z,17.20
2022-10-24T08:13:54.655Z,17.80
2022-10-24T08:16:38.835Z,18.80
2022-10-24T08:19:15.240Z,21.50
2022-10-24T08:21:50.551Z,18.90
2022-10-24T08:24:25.217Z,21.50
2022-10-24T08:26:58.443Z,18.10
2022-10-24T08:29:28.007Z,19.90
2022-10-24T08:32:04.080Z,18.50
2022-10-24T08:34:38.805Z,17.10
2022-10-24T08:37:07.854Z,14.30
2022-10-24T08:39:38.525Z,14.80
2022-10-24T08:42:21.352Z,20.40
2022-10-24T08:45:00.488Z,20.00
2022-10-24T08:48:08.631Z,16.00
2022-10-24T08:50:45.258Z,15.60
2022-10-24T08:53:40.075Z,19.50
2022-10-24T08:56:14.028Z,21.70
2022-10-24T08:58:46.600Z,13.20
2022-10-24T09:01:34.616Z,9.50
2022-10-24T09:04:09.560Z,11.00
2022-10-24T09:06:44.976Z,10.20
2022-10-24T09:09:31.963Z,12.90
2022-10-24T09:12:33.210Z,7.90
2022-10-24T09:15:17.168Z,13.60
2022-10-24T09:18:10.286Z,15.20
2022-10-24T09:20:58.309Z,11.80
2022-10-24T09:23:47.758Z,15.40
2022-10-24T09:26:41.393Z,14.80
2022-10-24T09:29:13.300Z,11.40
2022-10-24T09:31:54.006Z,12.10
2022-10-24T09:35:30.055Z,10.10
2022-10-24T09:38:25.634Z,10.40
2022-10-24T09:41:04.012Z,12.80
2022-10-24T09:43:47.053Z,10.50
2022-10-24T09:46:47.640Z,11.50
2022-10-24T09:49:41.520Z,8.60
2022-10-24T09:52:27.660Z,10.70
2022-10-24T09:55:29.461Z,8.60
2022-10-24T09:58:10.809Z,9.20
2022-10-24T10:00:48.688Z,15.80
2022-10-24T10:03:36.891Z,10.70
2022-10-24T10:06:23.961Z,11.50
2022-10-24T10:09:20.221Z,9.90
2022-10-24T10:12:02.838Z,15.00
2022-10-24T10:14:41.777Z,13.70
2022-10-24T10:17:37.016Z,11.30
2022-10-24T10:20:25.350Z,9.30
2022-10-24T10:22:59.235Z,17.70
2022-10-24T10:25:34.195Z,9.00
2022-10-24T10:28:04.575Z,12.90
2022-10-24T10:30:38.224Z,10.80
2022-10-24T10:37:17.970Z,6.30
2022-10-24T10:40:27.592Z,12.10
2022-10-24T10:43:18.679Z,10.20
2022-10-24T10:46:31.631Z,12.10
2022-10-24T10:49:09.709Z,8.20
2022-10-24T10:51:58.976Z,7.40
2022-10-24T10:54:40.858Z,6.40
2022-10-24T10:57:19.242Z,16.60
2022-10-24T11:01:00.783Z,8.40
2022-10-24T11:04:08.268Z,10.60
2022-10-24T11:07:14.668Z,9.20
2022-10-24T11:09:53.190Z,13.70
2022-10-24T11:12:46.956Z,14.90
2022-10-24T11:15:36.545Z,8.60
2022-10-24T11:18:39.494Z,9.70
2022-10-24T11:21:15.138Z,9.60
2022-10-24T11:24:04.202Z,8.60
2022-10-24T11:26:45.476Z,11.00
2022-10-24T11:31:57.528Z,8.30
2022-10-24T11:34:34.169Z,8.60
2022-10-24T11:37:20.395Z,13.00
2022-10-24T11:40:15.149Z,18.40
2022-10-24T11:43:02.268Z,11.90
2022-10-24T11:45:46.117Z,13.70
2022-10-24T11:48:30.074Z,8.10
2022-10-24T11:51:20.755Z,14.70
2022-10-24T11:54:14.672Z,10.80
2022-10-24T11:57:06.811Z,15.50
2022-10-24T11:59:38.506Z,12.20
2022-10-24T12:03:04.265Z,11.90
2022-10-24T12:05:59.090Z,10.00
2022-10-24T12:08:55.513Z,8.60
2022-10-24T12:12:19.697Z,10.00
2022-10-24T12:15:05.862Z,7.70
2022-10-24T12:18:13.001Z,11.30
2022-10-24T12:20:45.218Z,14.60
2022-10-24T12:23:27.687Z,10.90
2022-10-24T12:26:15.150Z,13.90
2022-10-24T12:28:58.616Z,10.40
2022-10-24T12:31:38.840Z,12.30
2022-10-24T12:34:24.248Z,9.60
2022-10-24T12:37:19.659Z,13.50
2022-10-24T12:39:54.839Z,8.40
2022-10-24T12:42:36.693Z,12.50
2022-10-24T12:45:06.492Z,9.90
2022-10-24T12:47:44.170Z,9.60
2022-10-24T12:50:28.556Z,10.50
2022-10-24T12:53:38.478Z,27.40
2022-10-24T12:56:15.108Z,16.10
2022-10-24T12:59:04.327Z,9.90
2022-10-24T13:01:44.247Z,10.80
2022-10-24T13:05:08.467Z,26.00
2022-10-24T13:08:06.931Z,13.90
2022-10-24T13:11:29.117Z,17.70
2022-10-24T13:14:38.344Z,15.90
2022-10-24T13:17:33.961Z,11.30
2022-10-24T13:20:24.243Z,9.60
2022-10-24T13:23:23.609Z,14.80
2022-10-24T13:25:58.976Z,12.00
2022-10-24T13:28:31.672Z,11.20
2022-10-24T13:31:01.049Z,10.80
2022-10-24T13:33:45.901Z,11.70
2022-10-24T13:36:28.620Z,14.00
2022-10-24T13:39:16.143Z,10.80
2022-10-24T13:42:37.636Z,13.50
2022-10-24T13:45:55.989Z,9.30
2022-10-24T13:48:34.438Z,10.60
2022-10-24T14:00:21.860Z,11.90
2022-10-24T14:03:43.155Z,9.50
2022-10-24T14:06:22.123Z,10.00
2022-10-24T14:13:09.772Z,8.80
2022-10-24T14:16:11.112Z,14.70
2022-10-24T14:23:32.104Z,12.40
2022-10-24T14:26:09.734Z,11.20
2022-10-24T14:29:01.164Z,12.70
2022-10-24T14:31:40.055Z,15.40
2022-10-24T14:34:24.673Z,19.60
2022-10-24T14:37:03.935Z,14.00
2022-10-24T14:39:40.908Z,16.20
2022-10-24T14:42:52.263Z,17.90
2022-10-24T14:45:58.807Z,21.20
2022-10-24T14:49:46.288Z,12.70
2022-10-24T14:52:54.384Z,13.80
2022-10-24T14:59:24.936Z,14.00
2022-10-24T15:02:18.574Z,13.90
2022-10-24T15:05:17.413Z,15.10
2022-10-24T15:08:24.245Z,13.60
2022-10-24T15:11:52.840Z,17.00
2022-10-24T15:32:51.915Z,12.80
2022-10-24T15:35:57.143Z,14.20
2022-10-24T16:05:51.101Z,18.80
2022-10-24T16:09:40.539Z,20.10
2022-10-24T16:15:53.688Z,25.10
2022-10-24T16:18:24.289Z,21.60
2022-10-24T16:21:05.326Z,26.60
2022-10-24T16:27:44.658Z,26.00
2022-10-24T16:39:12.196Z,26.10
2022-10-24T16:42:46.517Z,23.20
2022-10-24T17:36:13.453Z,13.40
2022-10-24T18:39:19.422Z,19.20
2022-10-24T18:42:39.525Z,18.30
2022-10-24T18:59:12.714Z,23.40
2022-10-24T19:06:00.263Z,23.80
2022-10-24T19:08:54.171Z,25.90
2022-10-24T19:12:00.976Z,20.40
2022-10-24T19:15:04.933Z,19.40
2022-10-24T19:18:16.533Z,21.30
2022-10-24T19:21:06.026Z,25.20
2022-10-24T19:27:59.154Z,19.20
2022-10-24T19:31:34.096Z,22.60
2022-10-24T19:34:54.784Z,20.40
2022-10-24T19:37:49.680Z,19.80
2022-10-24T19:42:14.377Z,19.10
2022-10-24T19:45:20.265Z,27.60
2022-10-24T19:48:28.675Z,25.10
2022-10-24T19:52:26.707Z,21.70
2022-10-24T20:07:38.324Z,40.20
2022-10-24T20:14:32.528Z,28.60
2022-10-24T21:14:47.386Z,11.00
2022-10-24T21:17:47.167Z,12.30
2022-10-24T21:21:12.943Z,13.10
2022-10-24T21:24:14.334Z,12.90
2022-10-24T21:27:37.867Z,12.50
2022-10-24T21:31:09.099Z,12.50
2022-10-24T21:38:09.384Z,16.00
2022-10-24T22:09:35.455Z,10.80
2022-10-24T22:12:46.413Z,8.90
2022-10-24T22:22:40.346Z,11.30
2022-10-24T22:51:00.163Z,14.10
2022-10-24T23:04:24.109Z,11.90
2022-10-24T23:12:16.850Z,11.40
2022-10-24T23:14:54.916Z,11.50
2022-10-24T23:35:58.446Z,15.30
2022-10-24T23:41:42.237Z,12.10
2022-10-24T23:45:07.354Z,14.70
2022-10-24T23:48:21.751Z,16.40
2022-10-24T23:51:49.244Z,13.60
2022-10-24T23:55:26.954Z,13.20
2022-10-24T23:58:53.602Z,13.20
